createdAt,value
2023-04-15T00:00:07.921Z,7.00
2023-04-15T00:02:35.505Z,7.10
2023-04-15T00:05:02.107Z,7.10
2023-04-15T00:07:29.549Z,7.20
2023-04-15T00:09:57.702Z,7.20
2023-04-15T00:12:24.209Z,7.20
2023-04-15T00:14:51.142Z,7.20
2023-04-15T00:17:17.678Z,7.10
2023-04-15T00:19:45.693Z,7.10
2023-04-15T00:22:12.317Z,7.10
2023-04-15T00:24:38.779Z,7.10
2023-04-15T00:27:05.575Z,7.10
2023-04-15T00:29:32.067Z,7.10
2023-04-15T00:31:58.564Z,7.00
2023-04-15T00:34:25.045Z,6.90
2023-04-15T00:36:52.455Z,6.90
2023-04-15T00:39:18.968Z,6.80
2023-04-15T00:41:45.634Z,6.70
2023-04-15T00:44:12.086Z,6.60
2023-04-15T00:46:39.058Z,6.50
2023-04-15T00:49:06.146Z,6.50
2023-04-15T00:51:33.592Z,6.40
2023-04-15T00:54:00.198Z,6.30
2023-04-15T00:56:26.983Z,6.30
2023-04-15T00:58:53.421Z,6.20
2023-04-15T01:01:20.101Z,6.20
2023-04-15T01:03:47.702Z,6.20
2023-04-15T01:06:14.209Z,6.20
2023-04-15T01:08:41.276Z,6.20
2023-04-15T01:11:07.709Z,6.10
2023-04-15T01:13:34.194Z,6.10
2023-04-15T01:16:00.703Z,6.10
2023-04-15T01:18:27.190Z,6.10
2023-04-15T01:20:53.665Z,6.00
2023-04-15T01:23:20.127Z,5.90
2023-04-15T01:25:46.585Z,5.90
2023-04-15T01:28:13.185Z,5.80
2023-04-15T01:30:39.660Z,5.70
2023-04-15T01:33:06.564Z,5.60
2023-04-15T01:35:33.064Z,5.60
2023-04-15T01:37:59.513Z,5.60
2023-04-15T01:40:27.030Z,5.60
2023-04-15T01:42:53.474Z,5.60
2023-04-15T01:45:19.952Z,5.60
2023-04-15T01:47:46.451Z,5.60
2023-04-15T01:50:13.018Z,5.60
2023-04-15T01:52:39.483Z,5.60
2023-04-15T01:55:06.180Z,5.60
2023-04-15T01:57:32.692Z,5.60
2023-04-15T01:59:59.153Z,5.60
2023-04-15T02:02:25.782Z,5.60
2023-04-15T02:04:53.452Z,5.60
2023-04-15T02:07:19.898Z,5.50
2023-04-15T02:09:46.432Z,5.40
2023-04-15T02:12:13.333Z,5.40
2023-04-15T02:14:39.781Z,5.30
2023-04-15T02:17:09.311Z,5.20
2023-04-15T02:19:35.829Z,5.20
2023-04-15T02:22:02.580Z,5.20
2023-04-15T02:24:29.042Z,5.20
2023-04-15T02:26:56.016Z,5.20
2023-04-15T02:29:23.378Z,5.10
2023-04-15T02:31:49.941Z,5.00
2023-04-15T02:34:16.513Z,5.00
2023-04-15T02:36:42.958Z,5.00
2023-04-15T02:39:09.737Z,4.90
2023-04-15T02:41:36.558Z,4.90
2023-04-15T02:44:03.047Z,5.00
2023-04-15T02:46:29.564Z,5.00
2023-04-15T02:48:56.119Z,5.00
2023-04-15T02:51:22.735Z,4.90
2023-04-15T02:53:49.381Z,4.90
2023-04-15T02:56:16.957Z,4.90
2023-04-15T02:58:43.512Z,5.00
2023-04-15T03:01:09.988Z,5.00
2023-04-15T03:03:36.569Z,5.10
2023-04-15T03:06:03.173Z,5.10
2023-04-15T03:08:29.641Z,5.10
2023-04-15T03:10:56.392Z,5.10
2023-04-15T03:13:24.223Z,5.00
2023-04-15T03:15:50.729Z,4.90
2023-04-15T03:18:17.288Z,4.80
2023-04-15T03:20:43.772Z,4.80
2023-04-15T03:23:10.391Z,4.80
2023-04-15T03:25:37.364Z,4.70
2023-04-15T03:28:03.826Z,4.80
2023-04-15T03:30:30.411Z,4.80
2023-04-15T03:32:56.908Z,4.80
2023-04-15T03:35:23.357Z,4.80
2023-04-15T03:37:49.806Z,4.80
2023-04-15T03:40:16.237Z,4.70
2023-04-15T03:42:42.746Z,4.70
2023-04-15T03:45:09.209Z,4.60
2023-04-15T03:47:35.838Z,4.70
2023-04-15T03:50:02.379Z,4.60
2023-04-15T03:52:28.852Z,4.60
2023-04-15T03:54:55.880Z,4.60
2023-04-15T03:57:22.353Z,4.60
2023-04-15T03:59:48.796Z,4.60
2023-04-15T04:02:15.546Z,4.60
2023-04-15T04:04:42.107Z,4.70
2023-04-15T04:07:08.609Z,4.70
2023-04-15T04:09:35.089Z,4.70
2023-04-15T04:12:02.528Z,4.60
2023-04-15T04:14:29.682Z,4.60
2023-04-15T04:16:57.298Z,4.60
2023-04-15T04:19:23.835Z,4.50
2023-04-15T04:21:50.292Z,4.60
2023-04-15T04:24:16.776Z,4.60
2023-04-15T04:26:43.244Z,4.60
2023-04-15T04:29:09.768Z,4.70
2023-04-15T04:31:36.420Z,4.80
2023-04-15T04:34:02.943Z,4.80
2023-04-15T04:36:29.410Z,4.80
2023-04-15T04:38:56.030Z,4.80
2023-04-15T04:41:22.500Z,4.90
2023-04-15T04:43:49.000Z,4.90
2023-04-15T04:46:15.579Z,4.90
2023-04-15T04:48:42.057Z,4.90
2023-04-15T04:51:09.346Z,4.90
2023-04-15T04:53:37.371Z,5.00
2023-04-15T04:56:03.843Z,4.90
2023-04-15T04:58:30.609Z,4.90
2023-04-15T05:00:57.097Z,4.90
2023-04-15T05:03:23.692Z,4.90
2023-04-15T05:05:50.547Z,4.90
2023-04-15T05:08:16.998Z,4.90
2023-04-15T05:10:43.465Z,5.00
2023-04-15T05:13:09.923Z,5.00
2023-04-15T05:15:39.608Z,5.10
2023-04-15T05:18:06.518Z,5.10
2023-04-15T05:20:32.985Z,5.20
2023-04-15T05:22:59.448Z,5.20
2023-04-15T05:25:26.002Z,5.20
2023-04-15T05:27:52.529Z,5.20
2023-04-15T05:30:18.969Z,5.10
2023-04-15T05:32:45.663Z,5.00
2023-04-15T05:35:12.261Z,5.00
2023-04-15T05:37:38.737Z,5.00
2023-04-15T05:40:05.225Z,4.90
2023-04-15T05:42:31.701Z,4.90
2023-04-15T05:44:58.203Z,4.90
2023-04-15T05:47:24.757Z,5.00
2023-04-15T05:49:51.312Z,5.00
2023-04-15T05:52:18.000Z,5.10
2023-04-15T05:54:44.435Z,5.20
2023-04-15T06:00:39.550Z,5.30
2023-04-15T06:03:06.368Z,5.50
2023-04-15T06:05:33.327Z,5.60
2023-04-15T06:07:59.837Z,5.60
2023-04-15T06:10:26.330Z,5.70
2023-04-15T06:12:53.141Z,5.80
2023-04-15T06:15:19.646Z,5.80
2023-04-15T06:17:46.231Z,5.90
2023-04-15T06:20:12.788Z,6.00
2023-04-15T06:22:39.289Z,6.00
2023-04-15T06:25:05.785Z,6.10
2023-04-15T06:27:32.337Z,6.20
2023-04-15T06:29:58.862Z,6.20
2023-04-15T06:32:25.531Z,6.20
2023-04-15T06:34:52.075Z,6.30
2023-04-15T06:37:18.545Z,6.40
2023-04-15T06:39:45.065Z,6.40
2023-04-15T06:42:12.014Z,6.50
2023-04-15T06:44:38.729Z,6.50
2023-04-15T06:47:05.190Z,6.50
2023-04-15T06:49:31.814Z,6.50
2023-04-15T06:51:58.345Z,6.60
2023-04-15T06:54:24.847Z,6.60
2023-04-15T06:56:51.589Z,6.60
2023-04-15T06:59:18.129Z,6.70
2023-04-15T07:01:44.615Z,6.80
2023-04-15T07:04:12.050Z,6.80
2023-04-15T07:06:38.753Z,6.90
2023-04-15T07:09:05.713Z,6.90
2023-04-15T07:11:32.363Z,6.90
2023-04-15T07:13:58.859Z,6.90
2023-04-15T07:16:27.157Z,6.90
2023-04-15T07:18:56.030Z,6.90
2023-04-15T07:21:22.675Z,7.00
2023-04-15T07:23:49.160Z,7.10
2023-04-15T07:26:15.647Z,7.10
2023-04-15T07:28:42.142Z,7.20
2023-04-15T07:31:08.722Z,7.20
2023-04-15T07:33:35.233Z,7.30
2023-04-15T07:36:01.758Z,7.30
2023-04-15T07:38:28.254Z,7.40
2023-04-15T07:40:54.794Z,7.40
2023-04-15T07:43:21.929Z,7.50
2023-04-15T07:45:48.467Z,7.50
2023-04-15T07:48:14.964Z,7.60
2023-04-15T07:50:41.485Z,7.60
2023-04-15T07:53:08.172Z,7.70
2023-04-15T07:55:34.670Z,7.80
2023-04-15T07:58:01.308Z,7.90
2023-04-15T08:00:28.137Z,7.90
2023-04-15T08:02:57.416Z,8.00
2023-04-15T08:05:24.052Z,8.00
2023-04-15T08:07:50.670Z,8.10
2023-04-15T08:10:17.236Z,8.10
2023-04-15T08:12:43.729Z,8.10
2023-04-15T08:15:10.256Z,8.10
2023-04-15T08:17:36.846Z,8.20
2023-04-15T08:20:04.332Z,8.20
2023-04-15T08:22:30.800Z,8.30
2023-04-15T08:24:57.845Z,8.30
2023-04-15T08:27:24.362Z,8.40
2023-04-15T08:29:50.854Z,8.40
2023-04-15T08:32:17.433Z,8.40
2023-04-15T08:34:43.930Z,8.50
2023-04-15T08:37:11.458Z,8.60
2023-04-15T08:39:39.113Z,8.60
2023-04-15T08:42:07.116Z,8.60
2023-04-15T08:44:33.650Z,8.70
2023-04-15T08:47:00.293Z,8.70
2023-04-15T08:49:26.806Z,8.70
2023-04-15T08:51:53.277Z,8.70
2023-04-15T08:54:19.749Z,8.60
2023-04-15T08:56:46.306Z,8.60
2023-04-15T08:59:12.844Z,8.60
2023-04-15T09:01:39.506Z,8.50
2023-04-15T09:04:07.788Z,8.30
2023-04-15T09:06:34.321Z,8.40
2023-04-15T09:09:01.123Z,8.40
2023-04-15T09:11:27.843Z,8.40
2023-04-15T09:13:54.338Z,8.30
2023-04-15T09:16:20.880Z,8.30
2023-04-15T09:18:47.423Z,8.30
2023-04-15T09:21:14.093Z,8.20
2023-04-15T09:23:40.836Z,8.20
2023-04-15T09:26:07.325Z,8.20
2023-04-15T09:28:35.739Z,8.20
2023-04-15T09:31:02.591Z,8.10
2023-04-15T09:33:29.142Z,8.10
2023-04-15T09:35:55.695Z,8.10
2023-04-15T09:38:22.148Z,8.10
2023-04-15T09:40:48.716Z,8.20
2023-04-15T09:43:16.662Z,8.20
2023-04-15T09:45:43.200Z,8.20
2023-04-15T09:48:09.789Z,8.20
2023-04-15T09:50:36.616Z,8.10
2023-04-15T09:53:03.165Z,8.20
2023-04-15T09:55:29.696Z,8.10
2023-04-15T09:57:56.203Z,8.10
2023-04-15T10:00:22.754Z,8.00
2023-04-15T10:02:49.669Z,8.00
2023-04-15T10:05:19.264Z,7.90
2023-04-15T10:07:45.848Z,7.90
2023-04-15T10:10:12.402Z,7.80
2023-04-15T10:12:38.906Z,7.80
2023-04-15T10:15:05.414Z,7.80
2023-04-15T10:17:35.345Z,7.80
2023-04-15T10:20:02.882Z,7.80
2023-04-15T10:22:29.825Z,7.70
2023-04-15T10:24:56.324Z,7.70
2023-04-15T10:27:22.902Z,7.60
2023-04-15T10:29:49.452Z,7.60
2023-04-15T10:32:15.979Z,7.60
2023-04-15T10:34:42.513Z,7.60
2023-04-15T10:37:09.043Z,7.60
2023-04-15T10:39:35.580Z,7.50
2023-04-15T10:42:02.079Z,7.50
2023-04-15T10:44:28.584Z,7.50
2023-04-15T10:46:55.277Z,7.50
2023-04-15T10:49:21.878Z,7.50
2023-04-15T10:51:48.398Z,7.50
2023-04-15T10:54:14.892Z,7.60
2023-04-15T10:56:41.413Z,7.60
2023-04-15T10:59:07.905Z,7.50
2023-04-15T11:01:34.500Z,7.50
2023-04-15T11:04:01.817Z,7.50
2023-04-15T11:06:29.506Z,7.40
2023-04-15T11:08:56.510Z,7.40
2023-04-15T11:11:23.064Z,7.40
2023-04-15T11:13:49.709Z,7.30
2023-04-15T11:16:16.312Z,7.30
2023-04-15T11:18:42.821Z,7.20
2023-04-15T11:21:09.637Z,7.20
2023-04-15T11:23:36.596Z,7.20
2023-04-15T11:26:03.701Z,7.30
2023-04-15T11:28:30.481Z,7.30
2023-04-15T11:30:57.111Z,7.30
2023-04-15T11:33:23.811Z,7.30
2023-04-15T11:35:50.463Z,7.30
2023-04-15T11:38:17.025Z,7.20
2023-04-15T11:40:46.249Z,7.30
2023-04-15T11:43:13.693Z,7.30
2023-04-15T11:45:40.859Z,7.30
2023-04-15T11:48:07.810Z,7.30
2023-04-15T11:50:34.338Z,7.30
2023-04-15T11:53:01.324Z,7.30
2023-04-15T11:55:27.822Z,7.30
2023-04-15T11:57:54.332Z,7.30
2023-04-15T12:00:20.912Z,7.30
2023-04-15T12:02:47.537Z,7.30
2023-04-15T12:05:14.180Z,7.30
2023-04-15T12:07:40.688Z,7.40
2023-04-15T12:10:07.464Z,7.40
2023-04-15T12:12:34.016Z,7.40
2023-04-15T12:15:00.733Z,7.40
2023-04-15T12:17:28.010Z,7.40
2023-04-15T12:19:54.512Z,7.40
2023-04-15T12:22:22.071Z,7.40
2023-04-15T12:24:49.486Z,7.40
2023-04-15T12:27:16.196Z,7.40
2023-04-15T12:29:45.676Z,7.50
2023-04-15T12:32:12.204Z,7.50
2023-04-15T12:34:38.977Z,7.50
2023-04-15T12:37:05.519Z,7.50
2023-04-15T12:39:32.432Z,7.50
2023-04-15T12:42:00.032Z,7.50
2023-04-15T12:44:27.114Z,7.50
2023-04-15T12:46:53.707Z,7.40
2023-04-15T12:49:20.942Z,7.40
2023-04-15T12:51:47.430Z,7.40
2023-04-15T12:54:13.920Z,7.40
2023-04-15T12:56:40.564Z,7.40
2023-04-15T12:59:07.197Z,7.40
2023-04-15T13:01:33.716Z,7.50
2023-04-15T13:04:00.339Z,7.50
2023-04-15T13:06:27.017Z,7.50
2023-04-15T13:08:58.231Z,7.50
2023-04-15T13:11:25.359Z,7.50
2023-04-15T13:13:55.282Z,7.60
2023-04-15T13:16:21.893Z,7.60
2023-04-15T13:18:48.495Z,7.60
2023-04-15T13:21:15.532Z,7.60
2023-04-15T13:23:42.049Z,7.60
2023-04-15T13:26:08.541Z,7.60
2023-04-15T13:28:35.134Z,7.60
2023-04-15T13:31:01.716Z,7.60
2023-04-15T13:33:28.234Z,7.60
2023-04-15T13:35:54.720Z,7.50
2023-04-15T13:38:21.266Z,7.50
2023-04-15T13:40:47.917Z,7.50
2023-04-15T13:43:14.372Z,7.60
2023-04-15T13:45:41.212Z,7.70
2023-04-15T13:48:07.707Z,7.70
2023-04-15T13:50:34.369Z,7.70
2023-04-15T13:53:00.880Z,7.70
2023-04-15T13:55:28.516Z,7.70
2023-04-15T13:57:55.356Z,7.70
2023-04-15T14:00:22.183Z,7.70
2023-04-15T14:02:48.829Z,7.70
2023-04-15T14:05:15.653Z,7.70
2023-04-15T14:07:42.134Z,7.70
2023-04-15T14:10:08.687Z,7.70
2023-04-15T14:12:35.313Z,7.70
2023-04-15T14:15:02.224Z,7.70
2023-04-15T14:17:28.767Z,7.70
2023-04-15T14:19:55.298Z,7.70
2023-04-15T14:22:21.917Z,7.70
2023-04-15T14:24:49.140Z,7.70
2023-04-15T14:27:16.581Z,7.70
2023-04-15T14:29:43.058Z,7.70
2023-04-15T14:32:12.269Z,7.80
2023-04-15T14:34:39.217Z,7.70
2023-04-15T14:37:05.809Z,7.70
2023-04-15T14:39:32.382Z,7.70
2023-04-15T14:41:58.860Z,7.70
2023-04-15T14:44:25.422Z,7.70
2023-04-15T14:46:52.171Z,7.70
2023-04-15T14:49:18.778Z,7.70
2023-04-15T14:51:46.365Z,7.70
2023-04-15T14:54:12.963Z,7.70
2023-04-15T14:56:39.442Z,7.70
2023-04-15T14:59:06.264Z,7.70
2023-04-15T15:01:32.915Z,7.70
2023-04-15T15:03:59.450Z,7.70
2023-04-15T15:06:26.138Z,7.80
2023-04-15T15:08:52.651Z,7.80
2023-04-15T15:11:19.198Z,7.70
2023-04-15T15:13:45.815Z,7.80
2023-04-15T15:16:14.429Z,7.70
2023-04-15T15:18:41.192Z,7.80
2023-04-15T15:21:07.718Z,7.70
2023-04-15T15:23:34.284Z,7.80
2023-04-15T15:26:00.929Z,7.80
2023-04-15T15:28:27.392Z,7.80
2023-04-15T15:30:53.967Z,7.80
2023-04-15T15:33:20.861Z,7.80
2023-04-15T15:35:47.397Z,7.80
2023-04-15T15:38:13.953Z,7.80
2023-04-15T15:40:40.529Z,7.80
2023-04-15T15:43:07.081Z,7.80
2023-04-15T15:45:34.151Z,7.70
2023-04-15T15:48:01.249Z,7.70
2023-04-15T15:50:27.734Z,7.60
2023-04-15T15:52:55.055Z,7.70
2023-04-15T15:55:21.591Z,7.70
2023-04-15T15:57:48.222Z,7.70
2023-04-15T16:00:14.818Z,7.70
2023-04-15T16:05:10.870Z,7.70
2023-04-15T16:07:37.401Z,7.70
2023-04-15T16:10:03.853Z,7.70
2023-04-15T16:12:30.402Z,7.70
2023-04-15T16:14:56.855Z,7.70
2023-04-15T16:17:23.379Z,7.70
2023-04-15T16:19:57.873Z,7.70
2023-04-15T16:22:27.662Z,7.70
2023-04-15T16:24:54.299Z,7.70
2023-04-15T16:27:20.841Z,7.70
2023-04-15T16:29:47.384Z,7.70
2023-04-15T16:32:13.965Z,7.70
2023-04-15T16:34:41.108Z,7.70
2023-04-15T16:37:07.659Z,7.70
2023-04-15T16:39:34.161Z,7.60
2023-04-15T16:42:02.259Z,7.60
2023-04-15T16:44:28.773Z,7.60
2023-04-15T16:46:55.693Z,7.60
2023-04-15T16:49:22.225Z,7.60
2023-04-15T16:51:48.763Z,7.50
2023-04-15T16:54:15.241Z,7.60
2023-04-15T16:56:41.805Z,7.50
2023-04-15T16:59:08.329Z,7.60
2023-04-15T17:01:34.993Z,7.60
2023-04-15T17:04:01.604Z,7.50
2023-04-15T17:06:28.453Z,7.50
2023-04-15T17:08:55.198Z,7.40
2023-04-15T17:11:21.792Z,7.40
2023-04-15T17:13:49.020Z,7.40
2023-04-15T17:16:15.767Z,7.50
2023-04-15T17:18:42.316Z,7.40
2023-04-15T17:21:08.775Z,7.40
2023-04-15T17:23:35.324Z,7.40
2023-04-15T17:26:01.944Z,7.40
2023-04-15T17:28:28.484Z,7.40
2023-04-15T17:30:54.963Z,7.40
2023-04-15T17:33:50.568Z,7.40
2023-04-15T17:36:08.686Z,7.40
2023-04-15T17:38:35.271Z,7.40
2023-04-15T17:41:01.814Z,7.50
2023-04-15T17:43:28.339Z,7.50
2023-04-15T17:45:55.180Z,7.50
2023-04-15T17:48:22.468Z,7.50
2023-04-15T17:50:51.174Z,7.50
2023-04-15T17:53:18.369Z,7.50
2023-04-15T17:55:44.833Z,7.50
2023-04-15T17:58:11.419Z,7.50
2023-04-15T18:00:37.960Z,7.50
2023-04-15T18:03:04.600Z,7.50
2023-04-15T18:05:31.173Z,7.50
2023-04-15T18:07:57.750Z,7.50
2023-04-15T18:10:24.244Z,7.50
2023-04-15T18:12:50.857Z,7.50
2023-04-15T18:15:17.386Z,7.40
2023-04-15T18:17:44.029Z,7.40
2023-04-15T18:20:10.660Z,7.40
2023-04-15T18:22:37.174Z,7.40
2023-04-15T18:25:03.936Z,7.40
2023-04-15T18:27:30.931Z,7.30
2023-04-15T18:29:57.399Z,7.30
2023-04-15T18:32:23.962Z,7.30
2023-04-15T18:34:50.593Z,7.30
2023-04-15T18:37:17.137Z,7.20
2023-04-15T18:39:43.663Z,7.30
2023-04-15T18:42:10.155Z,7.30
2023-04-15T18:44:36.687Z,7.30
2023-04-15T18:47:03.190Z,7.30
2023-04-15T18:49:29.673Z,7.30
2023-04-15T18:51:56.246Z,7.30
2023-04-15T18:54:22.756Z,7.30
2023-04-15T18:56:49.288Z,7.30
2023-04-15T18:59:28.779Z,7.30
2023-04-15T19:01:57.164Z,7.20
2023-04-15T19:04:23.736Z,7.20
2023-04-15T19:06:50.281Z,7.20
2023-04-15T19:09:16.928Z,7.20
2023-04-15T19:11:43.677Z,7.30
2023-04-15T19:14:10.435Z,7.30
2023-04-15T19:16:36.995Z,7.30
2023-04-15T19:19:03.753Z,7.30
2023-04-15T19:21:31.525Z,7.30
2023-04-15T19:23:58.341Z,7.30
2023-04-15T19:26:24.862Z,7.30
2023-04-15T19:28:53.682Z,7.30
2023-04-15T19:31:20.214Z,7.20
2023-04-15T19:33:46.780Z,7.20
2023-04-15T19:36:13.272Z,7.20
2023-04-15T19:38:39.853Z,7.20
2023-04-15T19:41:06.346Z,7.20
2023-04-15T19:43:32.956Z,7.20
2023-04-15T19:45:59.492Z,7.20
2023-04-15T19:48:26.050Z,7.20
2023-04-15T19:50:52.688Z,7.20
2023-04-15T19:53:19.208Z,7.20
2023-04-15T19:55:46.866Z,7.20
2023-04-15T19:58:13.466Z,7.10
2023-04-15T20:00:39.956Z,7.10
2023-04-15T20:03:06.686Z,7.10
2023-04-15T20:05:33.354Z,7.20
2023-04-15T20:07:59.983Z,7.20
2023-04-15T20:10:27.048Z,7.20
2023-04-15T20:12:53.659Z,7.20
2023-04-15T20:15:21.397Z,7.20
2023-04-15T20:17:48.003Z,7.20
2023-04-15T20:20:14.475Z,7.20
2023-04-15T20:22:41.275Z,7.20
2023-04-15T20:25:07.781Z,7.20
2023-04-15T20:27:34.338Z,7.20
2023-04-15T20:30:00.874Z,7.20
2023-04-15T20:32:28.276Z,7.20
2023-04-15T20:34:55.026Z,7.20
2023-04-15T20:37:22.156Z,7.20
2023-04-15T20:39:48.843Z,7.20
2023-04-15T20:42:15.408Z,7.10
2023-04-15T20:44:41.906Z,7.20
2023-04-15T20:47:08.552Z,7.20
2023-04-15T20:49:35.211Z,7.20
2023-04-15T20:52:01.739Z,7.20
2023-04-15T20:54:28.283Z,7.20
2023-04-15T20:56:54.849Z,7.20
2023-04-15T20:59:21.382Z,7.20
2023-04-15T21:01:48.032Z,7.20
2023-04-15T21:04:14.605Z,7.20
2023-04-15T21:06:41.094Z,7.10
2023-04-15T21:09:07.692Z,7.20
2023-04-15T21:11:53.314Z,7.20
2023-04-15T21:14:20.765Z,7.20
2023-04-15T21:16:47.305Z,7.20
2023-04-15T21:19:13.791Z,7.20
2023-04-15T21:21:40.256Z,7.10
2023-04-15T21:24:09.794Z,7.10
2023-04-15T21:26:36.536Z,7.10
2023-04-15T21:29:03.497Z,7.10
2023-04-15T21:31:30.340Z,7.10
2023-04-15T21:33:56.878Z,7.10
2023-04-15T21:36:23.371Z,7.10
2023-04-15T21:38:49.969Z,7.10
2023-04-15T21:41:16.452Z,7.10
2023-04-15T21:43:43.020Z,7.10
2023-04-15T21:46:22.695Z,7.00
2023-04-15T21:48:51.508Z,7.10
2023-04-15T21:51:17.993Z,7.10
2023-04-15T21:53:44.553Z,7.10
2023-04-15T21:56:11.195Z,7.10
2023-04-15T21:58:37.753Z,7.20
2023-04-15T22:01:04.328Z,7.20
2023-04-15T22:03:33.417Z,7.20
2023-04-15T22:06:00.302Z,7.10
2023-04-15T22:08:26.900Z,7.20
2023-04-15T22:10:53.373Z,7.20
2023-04-15T22:13:19.880Z,7.20
2023-04-15T22:15:46.350Z,7.10
2023-04-15T22:18:12.844Z,7.10
2023-04-15T22:20:39.332Z,7.10
2023-04-15T22:23:08.666Z,7.20
2023-04-15T22:25:36.792Z,7.20
2023-04-15T22:28:03.392Z,7.20
2023-04-15T22:30:29.948Z,7.10
2023-04-15T22:32:56.491Z,7.10
2023-04-15T22:35:22.977Z,7.20
2023-04-15T22:37:49.560Z,7.20
2023-04-15T22:40:16.399Z,7.20
2023-04-15T22:42:43.020Z,7.20
2023-04-15T22:45:09.497Z,7.20
2023-04-15T22:47:36.073Z,7.20
2023-04-15T22:50:02.607Z,7.20
2023-04-15T22:52:30.970Z,7.20
2023-04-15T22:54:57.839Z,7.20
2023-04-15T22:57:24.422Z,7.20
2023-04-15T22:59:50.946Z,7.20
2023-04-15T23:02:17.611Z,7.20
2023-04-15T23:04:45.076Z,7.20
2023-04-15T23:07:11.560Z,7.20
2023-04-15T23:09:38.072Z,7.20
2023-04-15T23:12:04.576Z,7.30
2023-04-15T23:14:31.234Z,7.30
2023-04-15T23:16:57.735Z,7.30
2023-04-15T23:19:24.220Z,7.30
2023-04-15T23:21:50.917Z,7.30
2023-04-15T23:24:17.449Z,7.30
2023-04-15T23:26:44.033Z,7.20
2023-04-15T23:29:10.652Z,7.20
2023-04-15T23:31:37.325Z,7.30
2023-04-15T23:34:03.989Z,7.30
2023-04-15T23:36:31.678Z,7.30
2023-04-15T23:38:58.215Z,7.30
2023-04-15T23:41:24.717Z,7.30
2023-04-15T23:43:51.197Z,7.30
2023-04-15T23:46:17.813Z,7.30
2023-04-15T23:48:44.400Z,7.30
2023-04-15T23:51:10.946Z,7.30
2023-04-15T23:53:37.434Z,7.30
2023-04-15T23:56:03.893Z,7.30
2023-04-15T23:58:31.414Z,7.30
